<?xml version="1.0" encoding="utf-8"?>
<gpx xmlns:xsi="http://www.w3.org/2001/XMLSchema-instance" xmlns:xsd="http://www.w3.org/2001/XMLSchema" version="1.1" creator="Shapelink.com" xmlns="http://www.topografix.com/GPX/1/1" xmlns:gpxtpx="http://www.garmin.com/xmlschemas/TrackPointExtension/v1">
  <metadata>
    <name>Gåing 0.52 km, 2014-07-06</name>
    <desc></desc>
    <author><name>Mikael Blom</name></author> 
    <time>2014-07-06T08:40:16Z</time>
  </metadata>
  <trk>
    <name>Gåing 0.52 km, 2014-07-06</name>
    <trkseg>
      <trkpt lat="59.9540271" lon="17.7148959">
        <ele>47.2418</ele>
        <time>2014-07-06T08:40:16Z</time>
      </trkpt>
      <trkpt lat="59.9540167" lon="17.7148968">
        <ele>46.2806</ele>
        <time>2014-07-06T08:40:17Z</time>
      </trkpt>
      <trkpt lat="59.9540073" lon="17.7148965">
        <ele>46.2806</ele>
        <time>2014-07-06T08:40:18Z</time>
      </trkpt>
      <trkpt lat="59.9539969" lon="17.7148991">
        <ele>45.7999</ele>
        <time>2014-07-06T08:40:19Z</time>
      </trkpt>
      <trkpt lat="59.9539809" lon="17.714904">
        <ele>45.7999</ele>
        <time>2014-07-06T08:40:20Z</time>
      </trkpt>
      <trkpt lat="59.953969" lon="17.7149113">
        <ele>46.2806</ele>
        <time>2014-07-06T08:40:21Z</time>
      </trkpt>
      <trkpt lat="59.953961" lon="17.7149193">
        <ele>46.2806</ele>
        <time>2014-07-06T08:40:22Z</time>
      </trkpt>
      <trkpt lat="59.9539474" lon="17.7149291">
        <ele>45.7999</ele>
        <time>2014-07-06T08:40:23Z</time>
      </trkpt>
      <trkpt lat="59.9539332" lon="17.7149295">
        <ele>45.7999</ele>
        <time>2014-07-06T08:40:24Z</time>
      </trkpt>
      <trkpt lat="59.9539203" lon="17.7149265">
        <ele>45.7999</ele>
        <time>2014-07-06T08:40:25Z</time>
      </trkpt>
      <trkpt lat="59.95391" lon="17.7149408">
        <ele>45.7999</ele>
        <time>2014-07-06T08:40:26Z</time>
      </trkpt>
      <trkpt lat="59.9539026" lon="17.7149541">
        <ele>45.7999</ele>
        <time>2014-07-06T08:40:27Z</time>
      </trkpt>
      <trkpt lat="59.9538933" lon="17.7149545">
        <ele>45.3192</ele>
        <time>2014-07-06T08:40:28Z</time>
      </trkpt>
      <trkpt lat="59.9538826" lon="17.7149503">
        <ele>45.3192</ele>
        <time>2014-07-06T08:40:29Z</time>
      </trkpt>
      <trkpt lat="59.9538721" lon="17.7149517">
        <ele>45.3192</ele>
        <time>2014-07-06T08:40:30Z</time>
      </trkpt>
      <trkpt lat="59.9538616" lon="17.7149461">
        <ele>44.8386</ele>
        <time>2014-07-06T08:40:31Z</time>
      </trkpt>
      <trkpt lat="59.9538499" lon="17.7149394">
        <ele>44.358</ele>
        <time>2014-07-06T08:40:32Z</time>
      </trkpt>
      <trkpt lat="59.9538426" lon="17.7149384">
        <ele>44.358</ele>
        <time>2014-07-06T08:40:33Z</time>
      </trkpt>
      <trkpt lat="59.9538336" lon="17.7149466">
        <ele>43.8773</ele>
        <time>2014-07-06T08:40:34Z</time>
      </trkpt>
      <trkpt lat="59.9538254" lon="17.7149527">
        <ele>43.3966</ele>
        <time>2014-07-06T08:40:35Z</time>
      </trkpt>
      <trkpt lat="59.9538147" lon="17.7149592">
        <ele>43.3966</ele>
        <time>2014-07-06T08:40:36Z</time>
      </trkpt>
      <trkpt lat="59.9538012" lon="17.714968">
        <ele>42.4354</ele>
        <time>2014-07-06T08:40:37Z</time>
      </trkpt>
      <trkpt lat="59.9537932" lon="17.7149683">
        <ele>42.916</ele>
        <time>2014-07-06T08:40:38Z</time>
      </trkpt>
      <trkpt lat="59.9537861" lon="17.7149716">
        <ele>42.916</ele>
        <time>2014-07-06T08:40:39Z</time>
      </trkpt>
      <trkpt lat="59.9537774" lon="17.714972">
        <ele>42.916</ele>
        <time>2014-07-06T08:40:40Z</time>
      </trkpt>
      <trkpt lat="59.9537655" lon="17.7149871">
        <ele>42.916</ele>
        <time>2014-07-06T08:40:41Z</time>
      </trkpt>
      <trkpt lat="59.953758" lon="17.7150063">
        <ele>42.916</ele>
        <time>2014-07-06T08:40:42Z</time>
      </trkpt>
      <trkpt lat="59.9537531" lon="17.7150141">
        <ele>43.3966</ele>
        <time>2014-07-06T08:40:43Z</time>
      </trkpt>
      <trkpt lat="59.9537385" lon="17.7150264">
        <ele>42.916</ele>
        <time>2014-07-06T08:40:44Z</time>
      </trkpt>
      <trkpt lat="59.953722" lon="17.7150399">
        <ele>42.916</ele>
        <time>2014-07-06T08:40:45Z</time>
      </trkpt>
      <trkpt lat="59.9537033" lon="17.7150553">
        <ele>41.9547</ele>
        <time>2014-07-06T08:40:46Z</time>
      </trkpt>
      <trkpt lat="59.9536856" lon="17.7150628">
        <ele>41.474</ele>
        <time>2014-07-06T08:40:47Z</time>
      </trkpt>
      <trkpt lat="59.9536704" lon="17.7150716">
        <ele>40.9934</ele>
        <time>2014-07-06T08:40:48Z</time>
      </trkpt>
      <trkpt lat="59.9536547" lon="17.7150835">
        <ele>41.474</ele>
        <time>2014-07-06T08:40:49Z</time>
      </trkpt>
      <trkpt lat="59.953644" lon="17.7150831">
        <ele>41.474</ele>
        <time>2014-07-06T08:40:50Z</time>
      </trkpt>
      <trkpt lat="59.9536323" lon="17.715088">
        <ele>41.474</ele>
        <time>2014-07-06T08:40:51Z</time>
      </trkpt>
      <trkpt lat="59.9536228" lon="17.7150923">
        <ele>40.9934</ele>
        <time>2014-07-06T08:40:52Z</time>
      </trkpt>
      <trkpt lat="59.9536181" lon="17.7150973">
        <ele>40.9934</ele>
        <time>2014-07-06T08:40:53Z</time>
      </trkpt>
      <trkpt lat="59.9536127" lon="17.7151011">
        <ele>40.9934</ele>
        <time>2014-07-06T08:40:54Z</time>
      </trkpt>
      <trkpt lat="59.9536052" lon="17.7151089">
        <ele>40.5128</ele>
        <time>2014-07-06T08:40:55Z</time>
      </trkpt>
      <trkpt lat="59.9535982" lon="17.7151187">
        <ele>40.5128</ele>
        <time>2014-07-06T08:40:56Z</time>
      </trkpt>
      <trkpt lat="59.9535888" lon="17.715131">
        <ele>40.9934</ele>
        <time>2014-07-06T08:40:57Z</time>
      </trkpt>
      <trkpt lat="59.9535723" lon="17.7151523">
        <ele>40.9934</ele>
        <time>2014-07-06T08:40:58Z</time>
      </trkpt>
      <trkpt lat="59.9535591" lon="17.715174">
        <ele>41.474</ele>
        <time>2014-07-06T08:40:59Z</time>
      </trkpt>
      <trkpt lat="59.9535453" lon="17.7151975">
        <ele>41.474</ele>
        <time>2014-07-06T08:41:00Z</time>
      </trkpt>
      <trkpt lat="59.9535347" lon="17.7152217">
        <ele>42.4354</ele>
        <time>2014-07-06T08:41:01Z</time>
      </trkpt>
      <trkpt lat="59.9535207" lon="17.7152539">
        <ele>42.4354</ele>
        <time>2014-07-06T08:41:02Z</time>
      </trkpt>
      <trkpt lat="59.9535084" lon="17.7152841">
        <ele>42.4354</ele>
        <time>2014-07-06T08:41:03Z</time>
      </trkpt>
      <trkpt lat="59.9535002" lon="17.7153083">
        <ele>42.916</ele>
        <time>2014-07-06T08:41:04Z</time>
      </trkpt>
      <trkpt lat="59.9534852" lon="17.7153363">
        <ele>43.3966</ele>
        <time>2014-07-06T08:41:05Z</time>
      </trkpt>
      <trkpt lat="59.9534685" lon="17.7153616">
        <ele>44.358</ele>
        <time>2014-07-06T08:41:06Z</time>
      </trkpt>
      <trkpt lat="59.9534557" lon="17.715385">
        <ele>44.8386</ele>
        <time>2014-07-06T08:41:07Z</time>
      </trkpt>
      <trkpt lat="59.9534412" lon="17.7154155">
        <ele>45.3192</ele>
        <time>2014-07-06T08:41:08Z</time>
      </trkpt>
      <trkpt lat="59.9534324" lon="17.7154362">
        <ele>45.7999</ele>
        <time>2014-07-06T08:41:09Z</time>
      </trkpt>
      <trkpt lat="59.9534282" lon="17.7154507">
        <ele>46.2806</ele>
        <time>2014-07-06T08:41:10Z</time>
      </trkpt>
      <trkpt lat="59.953423" lon="17.7154637">
        <ele>46.7612</ele>
        <time>2014-07-06T08:41:11Z</time>
      </trkpt>
      <trkpt lat="59.9534145" lon="17.7154812">
        <ele>46.7612</ele>
        <time>2014-07-06T08:41:12Z</time>
      </trkpt>
      <trkpt lat="59.9534039" lon="17.7155031">
        <ele>47.2418</ele>
        <time>2014-07-06T08:41:13Z</time>
      </trkpt>
      <trkpt lat="59.9533965" lon="17.7155182">
        <ele>47.7225</ele>
        <time>2014-07-06T08:41:14Z</time>
      </trkpt>
      <trkpt lat="59.953383" lon="17.7155362">
        <ele>48.2034</ele>
        <time>2014-07-06T08:41:15Z</time>
      </trkpt>
      <trkpt lat="59.9533687" lon="17.7155602">
        <ele>48.2034</ele>
        <time>2014-07-06T08:41:16Z</time>
      </trkpt>
      <trkpt lat="59.9533596" lon="17.71558">
        <ele>48.684</ele>
        <time>2014-07-06T08:41:17Z</time>
      </trkpt>
      <trkpt lat="59.9533467" lon="17.7155977">
        <ele>49.1646</ele>
        <time>2014-07-06T08:41:18Z</time>
      </trkpt>
      <trkpt lat="59.9533333" lon="17.7156166">
        <ele>49.1646</ele>
        <time>2014-07-06T08:41:19Z</time>
      </trkpt>
      <trkpt lat="59.9533227" lon="17.7156324">
        <ele>50.126</ele>
        <time>2014-07-06T08:41:20Z</time>
      </trkpt>
      <trkpt lat="59.953309" lon="17.7156476">
        <ele>50.126</ele>
        <time>2014-07-06T08:41:21Z</time>
      </trkpt>
      <trkpt lat="59.9532952" lon="17.7156631">
        <ele>51.0872</ele>
        <time>2014-07-06T08:41:22Z</time>
      </trkpt>
      <trkpt lat="59.9532738" lon="17.7156823">
        <ele>51.0872</ele>
        <time>2014-07-06T08:41:23Z</time>
      </trkpt>
      <trkpt lat="59.9532657" lon="17.7157025">
        <ele>51.0872</ele>
        <time>2014-07-06T08:41:24Z</time>
      </trkpt>
      <trkpt lat="59.95326" lon="17.7157173">
        <ele>51.5679</ele>
        <time>2014-07-06T08:41:25Z</time>
      </trkpt>
      <trkpt lat="59.953249" lon="17.7157362">
        <ele>52.0486</ele>
        <time>2014-07-06T08:41:26Z</time>
      </trkpt>
      <trkpt lat="59.9532324" lon="17.7157435">
        <ele>51.5679</ele>
        <time>2014-07-06T08:41:27Z</time>
      </trkpt>
      <trkpt lat="59.9532226" lon="17.7157698">
        <ele>52.0486</ele>
        <time>2014-07-06T08:41:28Z</time>
      </trkpt>
      <trkpt lat="59.9532136" lon="17.7157988">
        <ele>52.0486</ele>
        <time>2014-07-06T08:41:29Z</time>
      </trkpt>
      <trkpt lat="59.9532075" lon="17.715818">
        <ele>52.5292</ele>
        <time>2014-07-06T08:41:30Z</time>
      </trkpt>
      <trkpt lat="59.953196" lon="17.7158378">
        <ele>52.5292</ele>
        <time>2014-07-06T08:41:31Z</time>
      </trkpt>
      <trkpt lat="59.9531848" lon="17.7158562">
        <ele>52.5292</ele>
        <time>2014-07-06T08:41:32Z</time>
      </trkpt>
      <trkpt lat="59.9531728" lon="17.7158765">
        <ele>53.0098</ele>
        <time>2014-07-06T08:41:33Z</time>
      </trkpt>
      <trkpt lat="59.9531609" lon="17.7159035">
        <ele>53.0098</ele>
        <time>2014-07-06T08:41:34Z</time>
      </trkpt>
      <trkpt lat="59.9531493" lon="17.7159283">
        <ele>53.4905</ele>
        <time>2014-07-06T08:41:35Z</time>
      </trkpt>
      <trkpt lat="59.9531438" lon="17.7159481">
        <ele>53.9712</ele>
        <time>2014-07-06T08:41:36Z</time>
      </trkpt>
      <trkpt lat="59.9531381" lon="17.7159662">
        <ele>54.4518</ele>
        <time>2014-07-06T08:41:37Z</time>
      </trkpt>
      <trkpt lat="59.9531298" lon="17.7159901">
        <ele>54.4518</ele>
        <time>2014-07-06T08:41:38Z</time>
      </trkpt>
      <trkpt lat="59.9531201" lon="17.7160127">
        <ele>54.9324</ele>
        <time>2014-07-06T08:41:39Z</time>
      </trkpt>
      <trkpt lat="59.9531108" lon="17.7160298">
        <ele>54.9324</ele>
        <time>2014-07-06T08:41:40Z</time>
      </trkpt>
      <trkpt lat="59.9531037" lon="17.7160563">
        <ele>55.4131</ele>
        <time>2014-07-06T08:41:41Z</time>
      </trkpt>
      <trkpt lat="59.9530968" lon="17.7160817">
        <ele>55.8938</ele>
        <time>2014-07-06T08:41:42Z</time>
      </trkpt>
      <trkpt lat="59.9530884" lon="17.7161074">
        <ele>55.8938</ele>
        <time>2014-07-06T08:41:43Z</time>
      </trkpt>
      <trkpt lat="59.9530784" lon="17.716138">
        <ele>55.8938</ele>
        <time>2014-07-06T08:41:44Z</time>
      </trkpt>
      <trkpt lat="59.9530675" lon="17.716166">
        <ele>55.8938</ele>
        <time>2014-07-06T08:41:45Z</time>
      </trkpt>
      <trkpt lat="59.9530578" lon="17.7161878">
        <ele>54.9324</ele>
        <time>2014-07-06T08:41:46Z</time>
      </trkpt>
      <trkpt lat="59.9530492" lon="17.7162133">
        <ele>54.4518</ele>
        <time>2014-07-06T08:41:47Z</time>
      </trkpt>
      <trkpt lat="59.9530439" lon="17.7162449">
        <ele>53.9712</ele>
        <time>2014-07-06T08:41:48Z</time>
      </trkpt>
      <trkpt lat="59.953038" lon="17.7162695">
        <ele>53.4905</ele>
        <time>2014-07-06T08:41:49Z</time>
      </trkpt>
      <trkpt lat="59.9530324" lon="17.7162876">
        <ele>53.4905</ele>
        <time>2014-07-06T08:41:50Z</time>
      </trkpt>
      <trkpt lat="59.95302" lon="17.7163122">
        <ele>53.4905</ele>
        <time>2014-07-06T08:41:51Z</time>
      </trkpt>
      <trkpt lat="59.9530107" lon="17.7163401">
        <ele>53.0098</ele>
        <time>2014-07-06T08:41:52Z</time>
      </trkpt>
      <trkpt lat="59.9530018" lon="17.7163674">
        <ele>52.5292</ele>
        <time>2014-07-06T08:41:53Z</time>
      </trkpt>
      <trkpt lat="59.9529906" lon="17.7163952">
        <ele>52.5292</ele>
        <time>2014-07-06T08:41:54Z</time>
      </trkpt>
      <trkpt lat="59.9529822" lon="17.7164244">
        <ele>52.5292</ele>
        <time>2014-07-06T08:41:55Z</time>
      </trkpt>
      <trkpt lat="59.952977" lon="17.7164525">
        <ele>52.5292</ele>
        <time>2014-07-06T08:41:56Z</time>
      </trkpt>
      <trkpt lat="59.9529688" lon="17.7164821">
        <ele>51.0872</ele>
        <time>2014-07-06T08:41:57Z</time>
      </trkpt>
      <trkpt lat="59.952961" lon="17.716507">
        <ele>50.126</ele>
        <time>2014-07-06T08:41:58Z</time>
      </trkpt>
      <trkpt lat="59.9529551" lon="17.7165354">
        <ele>49.6453</ele>
        <time>2014-07-06T08:41:59Z</time>
      </trkpt>
      <trkpt lat="59.952948" lon="17.7165612">
        <ele>49.1646</ele>
        <time>2014-07-06T08:42:00Z</time>
      </trkpt>
      <trkpt lat="59.9529447" lon="17.7165882">
        <ele>49.1646</ele>
        <time>2014-07-06T08:42:01Z</time>
      </trkpt>
      <trkpt lat="59.9529416" lon="17.7166147">
        <ele>49.1646</ele>
        <time>2014-07-06T08:42:02Z</time>
      </trkpt>
      <trkpt lat="59.9529351" lon="17.7166406">
        <ele>48.684</ele>
        <time>2014-07-06T08:42:03Z</time>
      </trkpt>
      <trkpt lat="59.9529294" lon="17.7166611">
        <ele>47.7225</ele>
        <time>2014-07-06T08:42:04Z</time>
      </trkpt>
      <trkpt lat="59.9529242" lon="17.7166867">
        <ele>47.2418</ele>
        <time>2014-07-06T08:42:05Z</time>
      </trkpt>
      <trkpt lat="59.9529153" lon="17.7167183">
        <ele>45.7999</ele>
        <time>2014-07-06T08:42:06Z</time>
      </trkpt>
      <trkpt lat="59.9529092" lon="17.7167473">
        <ele>44.8386</ele>
        <time>2014-07-06T08:42:07Z</time>
      </trkpt>
      <trkpt lat="59.952904" lon="17.7167717">
        <ele>44.358</ele>
        <time>2014-07-06T08:42:08Z</time>
      </trkpt>
      <trkpt lat="59.9529009" lon="17.7167972">
        <ele>44.358</ele>
        <time>2014-07-06T08:42:09Z</time>
      </trkpt>
      <trkpt lat="59.952894" lon="17.7168184">
        <ele>43.8773</ele>
        <time>2014-07-06T08:42:10Z</time>
      </trkpt>
      <trkpt lat="59.9528883" lon="17.7168472">
        <ele>43.3966</ele>
        <time>2014-07-06T08:42:11Z</time>
      </trkpt>
      <trkpt lat="59.9528824" lon="17.7168671">
        <ele>42.916</ele>
        <time>2014-07-06T08:42:12Z</time>
      </trkpt>
      <trkpt lat="59.952882" lon="17.7168894">
        <ele>42.4354</ele>
        <time>2014-07-06T08:42:13Z</time>
      </trkpt>
      <trkpt lat="59.9528792" lon="17.7169127">
        <ele>41.9547</ele>
        <time>2014-07-06T08:42:14Z</time>
      </trkpt>
      <trkpt lat="59.9528753" lon="17.7169336">
        <ele>41.474</ele>
        <time>2014-07-06T08:42:15Z</time>
      </trkpt>
      <trkpt lat="59.9528677" lon="17.7169593">
        <ele>40.9934</ele>
        <time>2014-07-06T08:42:16Z</time>
      </trkpt>
      <trkpt lat="59.9528613" lon="17.7169895">
        <ele>40.5128</ele>
        <time>2014-07-06T08:42:17Z</time>
      </trkpt>
      <trkpt lat="59.9528517" lon="17.7170115">
        <ele>39.5513</ele>
        <time>2014-07-06T08:42:18Z</time>
      </trkpt>
      <trkpt lat="59.9528435" lon="17.7170374">
        <ele>38.5901</ele>
        <time>2014-07-06T08:42:19Z</time>
      </trkpt>
      <trkpt lat="59.9528329" lon="17.7170645">
        <ele>38.1094</ele>
        <time>2014-07-06T08:42:20Z</time>
      </trkpt>
      <trkpt lat="59.9528217" lon="17.7170871">
        <ele>37.6287</ele>
        <time>2014-07-06T08:42:21Z</time>
      </trkpt>
      <trkpt lat="59.9528106" lon="17.7171089">
        <ele>36.6675</ele>
        <time>2014-07-06T08:42:22Z</time>
      </trkpt>
      <trkpt lat="59.9527978" lon="17.7171387">
        <ele>36.1868</ele>
        <time>2014-07-06T08:42:23Z</time>
      </trkpt>
      <trkpt lat="59.95279" lon="17.717168">
        <ele>35.7061</ele>
        <time>2014-07-06T08:42:24Z</time>
      </trkpt>
      <trkpt lat="59.9527821" lon="17.7171962">
        <ele>34.7449</ele>
        <time>2014-07-06T08:42:25Z</time>
      </trkpt>
      <trkpt lat="59.9527738" lon="17.7172258">
        <ele>34.2642</ele>
        <time>2014-07-06T08:42:26Z</time>
      </trkpt>
      <trkpt lat="59.952764" lon="17.717256">
        <ele>33.3029</ele>
        <time>2014-07-06T08:42:27Z</time>
      </trkpt>
      <trkpt lat="59.9527538" lon="17.7172829">
        <ele>32.8223</ele>
        <time>2014-07-06T08:42:28Z</time>
      </trkpt>
      <trkpt lat="59.9527422" lon="17.717303">
        <ele>32.3416</ele>
        <time>2014-07-06T08:42:29Z</time>
      </trkpt>
      <trkpt lat="59.9527315" lon="17.7173252">
        <ele>31.8607</ele>
        <time>2014-07-06T08:42:30Z</time>
      </trkpt>
      <trkpt lat="59.9527228" lon="17.717348">
        <ele>31.3801</ele>
        <time>2014-07-06T08:42:31Z</time>
      </trkpt>
      <trkpt lat="59.9527143" lon="17.7173752">
        <ele>30.8995</ele>
        <time>2014-07-06T08:42:32Z</time>
      </trkpt>
      <trkpt lat="59.9527055" lon="17.7174021">
        <ele>30.4188</ele>
        <time>2014-07-06T08:42:33Z</time>
      </trkpt>
      <trkpt lat="59.9526954" lon="17.7174231">
        <ele>29.9381</ele>
        <time>2014-07-06T08:42:34Z</time>
      </trkpt>
      <trkpt lat="59.9526899" lon="17.7174472">
        <ele>29.9381</ele>
        <time>2014-07-06T08:42:35Z</time>
      </trkpt>
      <trkpt lat="59.9526823" lon="17.7174752">
        <ele>29.4575</ele>
        <time>2014-07-06T08:42:36Z</time>
      </trkpt>
      <trkpt lat="59.9526722" lon="17.7175011">
        <ele>28.9769</ele>
        <time>2014-07-06T08:42:37Z</time>
      </trkpt>
      <trkpt lat="59.952663" lon="17.7175262">
        <ele>28.4962</ele>
        <time>2014-07-06T08:42:38Z</time>
      </trkpt>
      <trkpt lat="59.9526538" lon="17.7175513">
        <ele>28.0155</ele>
        <time>2014-07-06T08:42:39Z</time>
      </trkpt>
      <trkpt lat="59.9526548" lon="17.7175718">
        <ele>28.9769</ele>
        <time>2014-07-06T08:42:40Z</time>
      </trkpt>
      <trkpt lat="59.9526498" lon="17.7176">
        <ele>29.4575</ele>
        <time>2014-07-06T08:42:41Z</time>
      </trkpt>
      <trkpt lat="59.9526429" lon="17.7176236">
        <ele>29.4575</ele>
        <time>2014-07-06T08:42:42Z</time>
      </trkpt>
      <trkpt lat="59.9526344" lon="17.7176543">
        <ele>29.9381</ele>
        <time>2014-07-06T08:42:43Z</time>
      </trkpt>
      <trkpt lat="59.9526609" lon="17.7176975">
        <ele>35.7061</ele>
        <time>2014-07-06T08:42:44Z</time>
      </trkpt>
      <trkpt lat="59.9526734" lon="17.7177313">
        <ele>39.5513</ele>
        <time>2014-07-06T08:42:45Z</time>
      </trkpt>
      <trkpt lat="59.9526832" lon="17.7177635">
        <ele>42.916</ele>
        <time>2014-07-06T08:42:46Z</time>
      </trkpt>
      <trkpt lat="59.9526894" lon="17.7177921">
        <ele>45.3192</ele>
        <time>2014-07-06T08:42:47Z</time>
      </trkpt>
      <trkpt lat="59.9526832" lon="17.7178149">
        <ele>45.3192</ele>
        <time>2014-07-06T08:42:48Z</time>
      </trkpt>
      <trkpt lat="59.9526744" lon="17.7178358">
        <ele>45.3192</ele>
        <time>2014-07-06T08:42:49Z</time>
      </trkpt>
      <trkpt lat="59.9526772" lon="17.7178564">
        <ele>47.2418</ele>
        <time>2014-07-06T08:42:50Z</time>
      </trkpt>
      <trkpt lat="59.9526693" lon="17.7178771">
        <ele>47.2418</ele>
        <time>2014-07-06T08:42:51Z</time>
      </trkpt>
      <trkpt lat="59.9526608" lon="17.717903">
        <ele>47.7225</ele>
        <time>2014-07-06T08:42:52Z</time>
      </trkpt>
      <trkpt lat="59.9526731" lon="17.7179258">
        <ele>50.6066</ele>
        <time>2014-07-06T08:42:53Z</time>
      </trkpt>
      <trkpt lat="59.952665" lon="17.7179512">
        <ele>50.6066</ele>
        <time>2014-07-06T08:42:54Z</time>
      </trkpt>
      <trkpt lat="59.9526562" lon="17.71798">
        <ele>50.126</ele>
        <time>2014-07-06T08:42:55Z</time>
      </trkpt>
      <trkpt lat="59.9526448" lon="17.7180077">
        <ele>50.126</ele>
        <time>2014-07-06T08:42:56Z</time>
      </trkpt>
      <trkpt lat="59.952631" lon="17.7180366">
        <ele>50.126</ele>
        <time>2014-07-06T08:42:57Z</time>
      </trkpt>
      <trkpt lat="59.9526207" lon="17.7180615">
        <ele>50.6066</ele>
        <time>2014-07-06T08:42:58Z</time>
      </trkpt>
      <trkpt lat="59.9526077" lon="17.7180981">
        <ele>50.6066</ele>
        <time>2014-07-06T08:42:59Z</time>
      </trkpt>
      <trkpt lat="59.9525968" lon="17.7181278">
        <ele>50.6066</ele>
        <time>2014-07-06T08:43:00Z</time>
      </trkpt>
      <trkpt lat="59.9525917" lon="17.7181491">
        <ele>50.126</ele>
        <time>2014-07-06T08:43:01Z</time>
      </trkpt>
      <trkpt lat="59.9525868" lon="17.7181713">
        <ele>50.126</ele>
        <time>2014-07-06T08:43:02Z</time>
      </trkpt>
      <trkpt lat="59.9525801" lon="17.7181998">
        <ele>49.6453</ele>
        <time>2014-07-06T08:43:03Z</time>
      </trkpt>
      <trkpt lat="59.9525714" lon="17.7182257">
        <ele>49.6453</ele>
        <time>2014-07-06T08:43:04Z</time>
      </trkpt>
      <trkpt lat="59.9525609" lon="17.7182532">
        <ele>49.1646</ele>
        <time>2014-07-06T08:43:05Z</time>
      </trkpt>
      <trkpt lat="59.9525543" lon="17.7182784">
        <ele>48.684</ele>
        <time>2014-07-06T08:43:06Z</time>
      </trkpt>
      <trkpt lat="59.9525487" lon="17.7183055">
        <ele>48.684</ele>
        <time>2014-07-06T08:43:07Z</time>
      </trkpt>
      <trkpt lat="59.9525383" lon="17.7183353">
        <ele>47.7225</ele>
        <time>2014-07-06T08:43:08Z</time>
      </trkpt>
      <trkpt lat="59.9525295" lon="17.7183559">
        <ele>47.7225</ele>
        <time>2014-07-06T08:43:09Z</time>
      </trkpt>
      <trkpt lat="59.9525182" lon="17.7183769">
        <ele>46.7612</ele>
        <time>2014-07-06T08:43:10Z</time>
      </trkpt>
      <trkpt lat="59.9525086" lon="17.7184024">
        <ele>45.7999</ele>
        <time>2014-07-06T08:43:11Z</time>
      </trkpt>
      <trkpt lat="59.952499" lon="17.7184231">
        <ele>45.3192</ele>
        <time>2014-07-06T08:43:12Z</time>
      </trkpt>
      <trkpt lat="59.9524883" lon="17.7184447">
        <ele>44.8386</ele>
        <time>2014-07-06T08:43:13Z</time>
      </trkpt>
      <trkpt lat="59.9524817" lon="17.7184697">
        <ele>44.358</ele>
        <time>2014-07-06T08:43:14Z</time>
      </trkpt>
      <trkpt lat="59.9524751" lon="17.718496">
        <ele>44.358</ele>
        <time>2014-07-06T08:43:15Z</time>
      </trkpt>
      <trkpt lat="59.9524684" lon="17.7185251">
        <ele>44.8386</ele>
        <time>2014-07-06T08:43:16Z</time>
      </trkpt>
      <trkpt lat="59.9524606" lon="17.7185501">
        <ele>44.358</ele>
        <time>2014-07-06T08:43:17Z</time>
      </trkpt>
      <trkpt lat="59.9524518" lon="17.7185754">
        <ele>44.358</ele>
        <time>2014-07-06T08:43:18Z</time>
      </trkpt>
      <trkpt lat="59.9524445" lon="17.7185988">
        <ele>43.8773</ele>
        <time>2014-07-06T08:43:19Z</time>
      </trkpt>
      <trkpt lat="59.9524347" lon="17.7186182">
        <ele>43.8773</ele>
        <time>2014-07-06T08:43:20Z</time>
      </trkpt>
      <trkpt lat="59.9524262" lon="17.7186391">
        <ele>43.8773</ele>
        <time>2014-07-06T08:43:21Z</time>
      </trkpt>
      <trkpt lat="59.9524195" lon="17.7186615">
        <ele>43.8773</ele>
        <time>2014-07-06T08:43:22Z</time>
      </trkpt>
      <trkpt lat="59.9524123" lon="17.7186816">
        <ele>43.8773</ele>
        <time>2014-07-06T08:43:23Z</time>
      </trkpt>
      <trkpt lat="59.9524032" lon="17.7187022">
        <ele>43.3966</ele>
        <time>2014-07-06T08:43:24Z</time>
      </trkpt>
      <trkpt lat="59.9523927" lon="17.7187229">
        <ele>43.3966</ele>
        <time>2014-07-06T08:43:25Z</time>
      </trkpt>
      <trkpt lat="59.9523839" lon="17.7187475">
        <ele>42.916</ele>
        <time>2014-07-06T08:43:26Z</time>
      </trkpt>
      <trkpt lat="59.9523775" lon="17.7187707">
        <ele>42.916</ele>
        <time>2014-07-06T08:43:27Z</time>
      </trkpt>
      <trkpt lat="59.9523703" lon="17.7187935">
        <ele>42.4354</ele>
        <time>2014-07-06T08:43:28Z</time>
      </trkpt>
      <trkpt lat="59.9523633" lon="17.7188132">
        <ele>41.9547</ele>
        <time>2014-07-06T08:43:29Z</time>
      </trkpt>
      <trkpt lat="59.9523571" lon="17.7188355">
        <ele>41.9547</ele>
        <time>2014-07-06T08:43:30Z</time>
      </trkpt>
      <trkpt lat="59.9523498" lon="17.7188603">
        <ele>41.9547</ele>
        <time>2014-07-06T08:43:31Z</time>
      </trkpt>
      <trkpt lat="59.9523407" lon="17.7188846">
        <ele>40.9934</ele>
        <time>2014-07-06T08:43:32Z</time>
      </trkpt>
      <trkpt lat="59.9523347" lon="17.7189129">
        <ele>40.5128</ele>
        <time>2014-07-06T08:43:33Z</time>
      </trkpt>
      <trkpt lat="59.9523273" lon="17.7189414">
        <ele>40.0321</ele>
        <time>2014-07-06T08:43:34Z</time>
      </trkpt>
      <trkpt lat="59.9523191" lon="17.718972">
        <ele>39.5513</ele>
        <time>2014-07-06T08:43:35Z</time>
      </trkpt>
      <trkpt lat="59.9523084" lon="17.7190007">
        <ele>39.0707</ele>
        <time>2014-07-06T08:43:36Z</time>
      </trkpt>
      <trkpt lat="59.9522958" lon="17.7190279">
        <ele>38.5901</ele>
        <time>2014-07-06T08:43:37Z</time>
      </trkpt>
      <trkpt lat="59.9522892" lon="17.7190521">
        <ele>38.1094</ele>
        <time>2014-07-06T08:43:38Z</time>
      </trkpt>
      <trkpt lat="59.9522882" lon="17.7190802">
        <ele>37.6287</ele>
        <time>2014-07-06T08:43:39Z</time>
      </trkpt>
      <trkpt lat="59.9522865" lon="17.7191105">
        <ele>37.6287</ele>
        <time>2014-07-06T08:43:40Z</time>
      </trkpt>
      <trkpt lat="59.9522823" lon="17.7191375">
        <ele>37.1481</ele>
        <time>2014-07-06T08:43:41Z</time>
      </trkpt>
      <trkpt lat="59.9522776" lon="17.7191629">
        <ele>36.1868</ele>
        <time>2014-07-06T08:43:42Z</time>
      </trkpt>
      <trkpt lat="59.9522751" lon="17.719188">
        <ele>35.7061</ele>
        <time>2014-07-06T08:43:43Z</time>
      </trkpt>
      <trkpt lat="59.9522788" lon="17.7192182">
        <ele>35.7061</ele>
        <time>2014-07-06T08:43:44Z</time>
      </trkpt>
      <trkpt lat="59.9522792" lon="17.7192479">
        <ele>35.7061</ele>
        <time>2014-07-06T08:43:45Z</time>
      </trkpt>
      <trkpt lat="59.9522751" lon="17.7192803">
        <ele>35.2255</ele>
        <time>2014-07-06T08:43:46Z</time>
      </trkpt>
      <trkpt lat="59.9522719" lon="17.719312">
        <ele>35.2255</ele>
        <time>2014-07-06T08:43:47Z</time>
      </trkpt>
      <trkpt lat="59.9522723" lon="17.7193431">
        <ele>35.2255</ele>
        <time>2014-07-06T08:43:48Z</time>
      </trkpt>
      <trkpt lat="59.9522713" lon="17.7193659">
        <ele>34.7449</ele>
        <time>2014-07-06T08:43:49Z</time>
      </trkpt>
      <trkpt lat="59.952272" lon="17.719391">
        <ele>34.2642</ele>
        <time>2014-07-06T08:43:50Z</time>
      </trkpt>
      <trkpt lat="59.9522705" lon="17.7194181">
        <ele>33.3029</ele>
        <time>2014-07-06T08:43:51Z</time>
      </trkpt>
      <trkpt lat="59.9522662" lon="17.7194465">
        <ele>32.3416</ele>
        <time>2014-07-06T08:43:52Z</time>
      </trkpt>
      <trkpt lat="59.9522627" lon="17.7194797">
        <ele>31.8607</ele>
        <time>2014-07-06T08:43:53Z</time>
      </trkpt>
      <trkpt lat="59.9522646" lon="17.7195094">
        <ele>31.3801</ele>
        <time>2014-07-06T08:43:54Z</time>
      </trkpt>
      <trkpt lat="59.9522643" lon="17.7195316">
        <ele>30.4188</ele>
        <time>2014-07-06T08:43:55Z</time>
      </trkpt>
      <trkpt lat="59.9522648" lon="17.7195579">
        <ele>29.4575</ele>
        <time>2014-07-06T08:43:56Z</time>
      </trkpt>
      <trkpt lat="59.9522726" lon="17.719576">
        <ele>29.4575</ele>
        <time>2014-07-06T08:43:57Z</time>
      </trkpt>
      <trkpt lat="59.9522777" lon="17.7195906">
        <ele>28.9769</ele>
        <time>2014-07-06T08:43:58Z</time>
      </trkpt>
      <trkpt lat="59.9522784" lon="17.7196195">
        <ele>27.5349</ele>
        <time>2014-07-06T08:43:59Z</time>
      </trkpt>
      <trkpt lat="59.9522763" lon="17.7196545">
        <ele>26.0929</ele>
        <time>2014-07-06T08:44:00Z</time>
      </trkpt>
      <trkpt lat="59.9522801" lon="17.719686">
        <ele>24.651</ele>
        <time>2014-07-06T08:44:01Z</time>
      </trkpt>
      <trkpt lat="59.9522827" lon="17.7197161">
        <ele>22.7283</ele>
        <time>2014-07-06T08:44:02Z</time>
      </trkpt>
      <trkpt lat="59.9522881" lon="17.7197392">
        <ele>21.767</ele>
        <time>2014-07-06T08:44:03Z</time>
      </trkpt>
      <trkpt lat="59.9522839" lon="17.7197725">
        <ele>20.325</ele>
        <time>2014-07-06T08:44:04Z</time>
      </trkpt>
      <trkpt lat="59.9522833" lon="17.7197989">
        <ele>19.3638</ele>
        <time>2014-07-06T08:44:05Z</time>
      </trkpt>
      <trkpt lat="59.9522846" lon="17.7198259">
        <ele>17.9218</ele>
        <time>2014-07-06T08:44:06Z</time>
      </trkpt>
      <trkpt lat="59.9522841" lon="17.7198488">
        <ele>16.9604</ele>
        <time>2014-07-06T08:44:07Z</time>
      </trkpt>
      <trkpt lat="59.9522834" lon="17.7198775">
        <ele>16.4797</ele>
        <time>2014-07-06T08:44:08Z</time>
      </trkpt>
      <trkpt lat="59.9522845" lon="17.719908">
        <ele>16.4797</ele>
        <time>2014-07-06T08:44:09Z</time>
      </trkpt>
      <trkpt lat="59.9522894" lon="17.7199436">
        <ele>16.4797</ele>
        <time>2014-07-06T08:44:10Z</time>
      </trkpt>
      <trkpt lat="59.9522959" lon="17.7199678">
        <ele>15.5184</ele>
        <time>2014-07-06T08:44:11Z</time>
      </trkpt>
      <trkpt lat="59.952301" lon="17.7199941">
        <ele>15.999</ele>
        <time>2014-07-06T08:44:12Z</time>
      </trkpt>
      <trkpt lat="59.9523027" lon="17.7200284">
        <ele>15.999</ele>
        <time>2014-07-06T08:44:13Z</time>
      </trkpt>
      <trkpt lat="59.9523005" lon="17.7200626">
        <ele>15.999</ele>
        <time>2014-07-06T08:44:14Z</time>
      </trkpt>
      <trkpt lat="59.9522946" lon="17.7200971">
        <ele>15.0377</ele>
        <time>2014-07-06T08:44:15Z</time>
      </trkpt>
      <trkpt lat="59.9522922" lon="17.7201247">
        <ele>15.0377</ele>
        <time>2014-07-06T08:44:16Z</time>
      </trkpt>
      <trkpt lat="59.9522907" lon="17.7201533">
        <ele>14.557</ele>
        <time>2014-07-06T08:44:17Z</time>
      </trkpt>
      <trkpt lat="59.9522871" lon="17.7201867">
        <ele>14.557</ele>
        <time>2014-07-06T08:44:18Z</time>
      </trkpt>
      <trkpt lat="59.9522869" lon="17.7202105">
        <ele>14.0764</ele>
        <time>2014-07-06T08:44:19Z</time>
      </trkpt>
      <trkpt lat="59.9522881" lon="17.7202287">
        <ele>14.557</ele>
        <time>2014-07-06T08:44:20Z</time>
      </trkpt>
      <trkpt lat="59.9522871" lon="17.7202434">
        <ele>13.5958</ele>
        <time>2014-07-06T08:44:21Z</time>
      </trkpt>
      <trkpt lat="59.9522854" lon="17.7202645">
        <ele>13.1151</ele>
        <time>2014-07-06T08:44:22Z</time>
      </trkpt>
      <trkpt lat="59.9522823" lon="17.720301">
        <ele>13.1151</ele>
        <time>2014-07-06T08:44:23Z</time>
      </trkpt>
      <trkpt lat="59.9522772" lon="17.7203315">
        <ele>12.1538</ele>
        <time>2014-07-06T08:44:24Z</time>
      </trkpt>
      <trkpt lat="59.9522706" lon="17.7203664">
        <ele>12.1538</ele>
        <time>2014-07-06T08:44:25Z</time>
      </trkpt>
      <trkpt lat="59.952272" lon="17.7203903">
        <ele>12.1538</ele>
        <time>2014-07-06T08:44:26Z</time>
      </trkpt>
      <trkpt lat="59.9522757" lon="17.7204134">
        <ele>12.1538</ele>
        <time>2014-07-06T08:44:27Z</time>
      </trkpt>
      <trkpt lat="59.9522789" lon="17.7204433">
        <ele>12.6344</ele>
        <time>2014-07-06T08:44:28Z</time>
      </trkpt>
      <trkpt lat="59.9522797" lon="17.7204707">
        <ele>12.6344</ele>
        <time>2014-07-06T08:44:29Z</time>
      </trkpt>
      <trkpt lat="59.9522776" lon="17.7205051">
        <ele>12.1538</ele>
        <time>2014-07-06T08:44:30Z</time>
      </trkpt>
      <trkpt lat="59.9522752" lon="17.7205231">
        <ele>12.6344</ele>
        <time>2014-07-06T08:44:31Z</time>
      </trkpt>
      <trkpt lat="59.9522718" lon="17.7205557">
        <ele>12.6344</ele>
        <time>2014-07-06T08:44:32Z</time>
      </trkpt>
      <trkpt lat="59.9522689" lon="17.720593">
        <ele>12.1538</ele>
        <time>2014-07-06T08:44:33Z</time>
      </trkpt>
      <trkpt lat="59.9522675" lon="17.7206315">
        <ele>12.1538</ele>
        <time>2014-07-06T08:44:34Z</time>
      </trkpt>
      <trkpt lat="59.9522643" lon="17.7206665">
        <ele>11.6732</ele>
        <time>2014-07-06T08:44:35Z</time>
      </trkpt>
      <trkpt lat="59.9522606" lon="17.7206962">
        <ele>11.6732</ele>
        <time>2014-07-06T08:44:36Z</time>
      </trkpt>
      <trkpt lat="59.9522581" lon="17.7207416">
        <ele>10.7118</ele>
        <time>2014-07-06T08:44:37Z</time>
      </trkpt>
      <trkpt lat="59.9522561" lon="17.7207878">
        <ele>10.2312</ele>
        <time>2014-07-06T08:44:38Z</time>
      </trkpt>
      <trkpt lat="59.9522523" lon="17.7208236">
        <ele>9.75061</ele>
        <time>2014-07-06T08:44:39Z</time>
      </trkpt>
      <trkpt lat="59.9522487" lon="17.7208545">
        <ele>9.2699</ele>
        <time>2014-07-06T08:44:40Z</time>
      </trkpt>
      <trkpt lat="59.9522528" lon="17.7208837">
        <ele>9.2699</ele>
        <time>2014-07-06T08:44:41Z</time>
      </trkpt>
      <trkpt lat="59.9522606" lon="17.7209152">
        <ele>9.75061</ele>
        <time>2014-07-06T08:44:42Z</time>
      </trkpt>
      <trkpt lat="59.9522622" lon="17.7209445">
        <ele>10.2312</ele>
        <time>2014-07-06T08:44:43Z</time>
      </trkpt>
      <trkpt lat="59.9522677" lon="17.720967">
        <ele>11.1925</ele>
        <time>2014-07-06T08:44:44Z</time>
      </trkpt>
      <trkpt lat="59.9522699" lon="17.7209898">
        <ele>12.1538</ele>
        <time>2014-07-06T08:44:45Z</time>
      </trkpt>
      <trkpt lat="59.952271" lon="17.7210116">
        <ele>11.6732</ele>
        <time>2014-07-06T08:44:46Z</time>
      </trkpt>
      <trkpt lat="59.9522751" lon="17.7210293">
        <ele>12.6344</ele>
        <time>2014-07-06T08:44:47Z</time>
      </trkpt>
      <trkpt lat="59.9522737" lon="17.7210607">
        <ele>12.6344</ele>
        <time>2014-07-06T08:44:48Z</time>
      </trkpt>
      <trkpt lat="59.9522742" lon="17.7210919">
        <ele>13.1151</ele>
        <time>2014-07-06T08:44:49Z</time>
      </trkpt>
      <trkpt lat="59.9522746" lon="17.721117">
        <ele>14.0764</ele>
        <time>2014-07-06T08:44:50Z</time>
      </trkpt>
      <trkpt lat="59.9522765" lon="17.72114">
        <ele>14.557</ele>
        <time>2014-07-06T08:44:51Z</time>
      </trkpt>
      <trkpt lat="59.9522793" lon="17.7211613">
        <ele>15.5184</ele>
        <time>2014-07-06T08:44:52Z</time>
      </trkpt>
      <trkpt lat="59.9522798" lon="17.7211947">
        <ele>15.5184</ele>
        <time>2014-07-06T08:44:53Z</time>
      </trkpt>
      <trkpt lat="59.9522796" lon="17.7212289">
        <ele>15.999</ele>
        <time>2014-07-06T08:44:54Z</time>
      </trkpt>
      <trkpt lat="59.9522824" lon="17.7212596">
        <ele>16.4797</ele>
        <time>2014-07-06T08:44:55Z</time>
      </trkpt>
      <trkpt lat="59.9522781" lon="17.7212952">
        <ele>16.4797</ele>
        <time>2014-07-06T08:44:56Z</time>
      </trkpt>
      <trkpt lat="59.9522768" lon="17.7213238">
        <ele>16.4797</ele>
        <time>2014-07-06T08:44:57Z</time>
      </trkpt>
      <trkpt lat="59.9522735" lon="17.7213572">
        <ele>15.999</ele>
        <time>2014-07-06T08:44:58Z</time>
      </trkpt>
      <trkpt lat="59.9522731" lon="17.7214023">
        <ele>15.5184</ele>
        <time>2014-07-06T08:44:59Z</time>
      </trkpt>
      <trkpt lat="59.9522762" lon="17.7214384">
        <ele>15.999</ele>
        <time>2014-07-06T08:45:00Z</time>
      </trkpt>
      <trkpt lat="59.9522746" lon="17.7214628">
        <ele>15.999</ele>
        <time>2014-07-06T08:45:01Z</time>
      </trkpt>
      <trkpt lat="59.9522766" lon="17.7214933">
        <ele>15.5184</ele>
        <time>2014-07-06T08:45:02Z</time>
      </trkpt>
      <trkpt lat="59.9522803" lon="17.7215208">
        <ele>15.5184</ele>
        <time>2014-07-06T08:45:03Z</time>
      </trkpt>
      <trkpt lat="59.9522848" lon="17.7215525">
        <ele>15.0377</ele>
        <time>2014-07-06T08:45:04Z</time>
      </trkpt>
      <trkpt lat="59.9522891" lon="17.7215849">
        <ele>14.557</ele>
        <time>2014-07-06T08:45:05Z</time>
      </trkpt>
      <trkpt lat="59.9522839" lon="17.7216109">
        <ele>15.0377</ele>
        <time>2014-07-06T08:45:06Z</time>
      </trkpt>
      <trkpt lat="59.9522723" lon="17.7216351">
        <ele>15.0377</ele>
        <time>2014-07-06T08:45:07Z</time>
      </trkpt>
      <trkpt lat="59.9522604" lon="17.7216606">
        <ele>15.0377</ele>
        <time>2014-07-06T08:45:08Z</time>
      </trkpt>
      <trkpt lat="59.9522615" lon="17.7216848">
        <ele>15.0377</ele>
        <time>2014-07-06T08:45:09Z</time>
      </trkpt>
      <trkpt lat="59.9522615" lon="17.7217088">
        <ele>14.0764</ele>
        <time>2014-07-06T08:45:10Z</time>
      </trkpt>
      <trkpt lat="59.952271" lon="17.7217393">
        <ele>13.1151</ele>
        <time>2014-07-06T08:45:11Z</time>
      </trkpt>
      <trkpt lat="59.9522817" lon="17.7217679">
        <ele>12.6344</ele>
        <time>2014-07-06T08:45:12Z</time>
      </trkpt>
      <trkpt lat="59.9522932" lon="17.7217896">
        <ele>11.6732</ele>
        <time>2014-07-06T08:45:13Z</time>
      </trkpt>
      <trkpt lat="59.9522983" lon="17.7218088">
        <ele>11.6732</ele>
        <time>2014-07-06T08:45:14Z</time>
      </trkpt>
      <trkpt lat="59.9522984" lon="17.7218338">
        <ele>11.1925</ele>
        <time>2014-07-06T08:45:15Z</time>
      </trkpt>
      <trkpt lat="59.9522974" lon="17.7218649">
        <ele>10.2312</ele>
        <time>2014-07-06T08:45:16Z</time>
      </trkpt>
      <trkpt lat="59.9522941" lon="17.7218994">
        <ele>10.2312</ele>
        <time>2014-07-06T08:45:17Z</time>
      </trkpt>
      <trkpt lat="59.9523003" lon="17.7219213">
        <ele>10.7118</ele>
        <time>2014-07-06T08:45:18Z</time>
      </trkpt>
      <trkpt lat="59.9522969" lon="17.721943">
        <ele>9.75061</ele>
        <time>2014-07-06T08:45:19Z</time>
      </trkpt>
      <trkpt lat="59.9522963" lon="17.721972">
        <ele>9.75061</ele>
        <time>2014-07-06T08:45:20Z</time>
      </trkpt>
      <trkpt lat="59.9522948" lon="17.7219994">
        <ele>9.75061</ele>
        <time>2014-07-06T08:45:21Z</time>
      </trkpt>
      <trkpt lat="59.9523034" lon="17.7220258">
        <ele>11.6732</ele>
        <time>2014-07-06T08:45:22Z</time>
      </trkpt>
      <trkpt lat="59.9523113" lon="17.7220466">
        <ele>13.5958</ele>
        <time>2014-07-06T08:45:23Z</time>
      </trkpt>
      <trkpt lat="59.9523165" lon="17.7220664">
        <ele>14.0764</ele>
        <time>2014-07-06T08:45:24Z</time>
      </trkpt>
      <trkpt lat="59.9523114" lon="17.7220902">
        <ele>14.0764</ele>
        <time>2014-07-06T08:45:25Z</time>
      </trkpt>
      <trkpt lat="59.9523073" lon="17.7221144">
        <ele>13.5958</ele>
        <time>2014-07-06T08:45:26Z</time>
      </trkpt>
      <trkpt lat="59.9523055" lon="17.722141">
        <ele>14.557</ele>
        <time>2014-07-06T08:45:27Z</time>
      </trkpt>
      <trkpt lat="59.952307" lon="17.7221704">
        <ele>16.4797</ele>
        <time>2014-07-06T08:45:28Z</time>
      </trkpt>
      <trkpt lat="59.9523071" lon="17.7221999">
        <ele>17.4412</ele>
        <time>2014-07-06T08:45:29Z</time>
      </trkpt>
      <trkpt lat="59.9523072" lon="17.722223">
        <ele>18.4023</ele>
        <time>2014-07-06T08:45:30Z</time>
      </trkpt>
      <trkpt lat="59.9523065" lon="17.7222464">
        <ele>18.4023</ele>
        <time>2014-07-06T08:45:31Z</time>
      </trkpt>
      <trkpt lat="59.9523052" lon="17.7222714">
        <ele>18.8831</ele>
        <time>2014-07-06T08:45:32Z</time>
      </trkpt>
      <trkpt lat="59.9522972" lon="17.7222956">
        <ele>19.8444</ele>
        <time>2014-07-06T08:45:33Z</time>
      </trkpt>
      <trkpt lat="59.9522895" lon="17.7223225">
        <ele>20.325</ele>
        <time>2014-07-06T08:45:34Z</time>
      </trkpt>
      <trkpt lat="59.9522858" lon="17.7223482">
        <ele>21.2864</ele>
        <time>2014-07-06T08:45:35Z</time>
      </trkpt>
      <trkpt lat="59.9522777" lon="17.7223719">
        <ele>21.2864</ele>
        <time>2014-07-06T08:45:36Z</time>
      </trkpt>
      <trkpt lat="59.9522704" lon="17.7223999">
        <ele>20.8057</ele>
        <time>2014-07-06T08:45:37Z</time>
      </trkpt>
      <trkpt lat="59.9522663" lon="17.7224267">
        <ele>20.8057</ele>
        <time>2014-07-06T08:45:38Z</time>
      </trkpt>
      <trkpt lat="59.9522627" lon="17.7224559">
        <ele>20.8057</ele>
        <time>2014-07-06T08:45:39Z</time>
      </trkpt>
      <trkpt lat="59.9522573" lon="17.7224844">
        <ele>21.2864</ele>
        <time>2014-07-06T08:45:40Z</time>
      </trkpt>
      <trkpt lat="59.9522539" lon="17.7225126">
        <ele>21.2864</ele>
        <time>2014-07-06T08:45:41Z</time>
      </trkpt>
      <trkpt lat="59.9522523" lon="17.7225437">
        <ele>21.767</ele>
        <time>2014-07-06T08:45:42Z</time>
      </trkpt>
      <trkpt lat="59.9522503" lon="17.7225697">
        <ele>22.2476</ele>
        <time>2014-07-06T08:45:43Z</time>
      </trkpt>
      <trkpt lat="59.9522478" lon="17.7226008">
        <ele>22.2476</ele>
        <time>2014-07-06T08:45:44Z</time>
      </trkpt>
      <trkpt lat="59.9522446" lon="17.7226335">
        <ele>22.2476</ele>
        <time>2014-07-06T08:45:45Z</time>
      </trkpt>
      <trkpt lat="59.9522424" lon="17.722663">
        <ele>22.7283</ele>
        <time>2014-07-06T08:45:46Z</time>
      </trkpt>
      <trkpt lat="59.9522403" lon="17.7226908">
        <ele>22.7283</ele>
        <time>2014-07-06T08:45:47Z</time>
      </trkpt>
      <trkpt lat="59.9522397" lon="17.7227224">
        <ele>23.209</ele>
        <time>2014-07-06T08:45:48Z</time>
      </trkpt>
      <trkpt lat="59.9522384" lon="17.7227551">
        <ele>23.209</ele>
        <time>2014-07-06T08:45:49Z</time>
      </trkpt>
    </trkseg>
  </trk>
</gpx>